createdAt,value
2022-10-19T00:00:22.710Z,13.700
2022-10-19T00:01:25.610Z,13.700
2022-10-19T00:02:22.896Z,13.700
2022-10-19T00:03:26.020Z,13.700
2022-10-19T00:04:20.870Z,13.700
2022-10-19T00:05:31.090Z,13.700
2022-10-19T00:06:25.026Z,13.700
2022-10-19T00:07:26.425Z,13.700
2022-10-19T00:08:32.298Z,13.700
2022-10-19T00:09:25.170Z,13.700
2022-10-19T00:10:29.543Z,13.700
2022-10-19T00:11:20.732Z,13.700
2022-10-19T00:12:33.743Z,13.600
2022-10-19T00:14:22.788Z,13.600
2022-10-19T00:15:33.507Z,13.600
2022-10-19T00:16:34.255Z,13.600
2022-10-19T00:17:25.824Z,13.600
2022-10-19T00:18:20.628Z,13.600
2022-10-19T00:19:34.302Z,13.600
2022-10-19T00:20:23.860Z,13.500
2022-10-19T00:21:25.075Z,13.500
2022-10-19T00:23:31.520Z,13.500
2022-10-19T00:24:25.011Z,13.500
2022-10-19T00:25:21.030Z,13.500
2022-10-19T00:26:30.818Z,13.500
2022-10-19T00:27:27.462Z,13.500
2022-10-19T00:28:25.320Z,13.500
2022-10-19T00:29:22.290Z,13.500
2022-10-19T00:30:31.021Z,13.500
2022-10-19T00:31:25.129Z,13.500
2022-10-19T00:32:21.027Z,13.500
2022-10-19T00:33:33.121Z,13.500
2022-10-19T00:34:33.002Z,13.500
2022-10-19T00:35:22.988Z,13.500
2022-10-19T00:36:29.775Z,13.500
2022-10-19T00:37:25.533Z,13.500
2022-10-19T00:38:25.046Z,13.500
2022-10-19T00:39:21.203Z,13.500
2022-10-19T00:40:37.529Z,13.500
2022-10-19T00:41:29.735Z,13.500
2022-10-19T00:42:23.190Z,13.500
2022-10-19T00:43:36.074Z,13.500
2022-10-19T00:44:21.825Z,13.500
2022-10-19T00:45:31.371Z,13.500
2022-10-19T00:46:21.366Z,13.400
2022-10-19T00:47:24.495Z,13.400
2022-10-19T00:48:22.758Z,13.400
2022-10-19T00:49:25.225Z,13.400
2022-10-19T00:50:33.421Z,13.400
2022-10-19T00:51:29.215Z,13.400
2022-10-19T00:52:27.053Z,13.400
2022-10-19T00:53:21.103Z,13.400
2022-10-19T00:54:28.757Z,13.400
2022-10-19T00:55:28.533Z,13.400
2022-10-19T00:56:25.526Z,13.400
2022-10-19T00:57:33.219Z,13.400
2022-10-19T00:58:29.696Z,13.400
2022-10-19T01:00:28.850Z,13.400
2022-10-19T01:01:37.942Z,13.300
2022-10-19T01:02:23.942Z,13.300
2022-10-19T01:40:26.822Z,13.100
2022-10-19T01:41:28.119Z,13.100
2022-10-19T01:42:46.871Z,13.100
2022-10-19T01:43:32.516Z,13.100
2022-10-19T01:44:25.905Z,13.100
2022-10-19T01:45:24.264Z,13.100
2022-10-19T01:47:10.995Z,13.000
2022-10-19T01:47:20.978Z,13.000
2022-10-19T01:48:27.405Z,13.050
2022-10-19T02:18:28.917Z,12.800
2022-10-19T02:19:29.961Z,12.800
2022-10-19T02:20:27.657Z,12.800
2022-10-19T02:21:35.084Z,12.800
2022-10-19T02:23:25.111Z,12.700
2022-10-19T02:24:23.407Z,12.700
2022-10-19T02:25:27.014Z,12.700
2022-10-19T02:26:30.882Z,12.700
2022-10-19T02:27:25.907Z,12.700
2022-10-19T02:28:37.537Z,12.700
2022-10-19T02:29:22.956Z,12.700
2022-10-19T02:30:27.834Z,12.700
2022-10-19T02:31:35.390Z,12.700
2022-10-19T02:32:35.660Z,12.700
2022-10-19T02:33:21.422Z,12.700
2022-10-19T02:34:22.648Z,12.700
2022-10-19T02:35:27.859Z,12.700
2022-10-19T02:36:30.844Z,12.700
2022-10-19T02:37:30.823Z,12.700
2022-10-19T02:39:33.704Z,12.700
2022-10-19T02:40:27.096Z,12.700
2022-10-19T02:41:23.901Z,12.700
2022-10-19T02:42:33.431Z,12.700
2022-10-19T02:43:30.790Z,12.700
2022-10-19T02:44:25.077Z,12.700
2022-10-19T02:45:24.054Z,12.700
2022-10-19T02:46:26.973Z,12.700
2022-10-19T02:47:29.827Z,12.700
2022-10-19T02:48:25.205Z,12.700
2022-10-19T02:49:34.861Z,12.700
2022-10-19T02:50:30.595Z,12.700
2022-10-19T02:52:21.828Z,12.700
2022-10-19T02:53:23.651Z,12.700
2022-10-19T02:54:28.574Z,12.700
2022-10-19T02:55:25.522Z,12.700
2022-10-19T02:56:34.656Z,12.600
2022-10-19T02:57:20.874Z,12.600
2022-10-19T02:58:26.781Z,12.600
2022-10-19T02:59:23.133Z,12.600
2022-10-19T03:00:26.220Z,12.600
2022-10-19T03:01:29.410Z,12.600
2022-10-19T03:02:23.038Z,12.600
2022-10-19T03:03:19.670Z,12.700
2022-10-19T03:04:30.524Z,12.700
2022-10-19T03:05:24.817Z,12.700
2022-10-19T03:06:29.595Z,12.700
2022-10-19T03:07:33.215Z,12.700
2022-10-19T03:08:27.425Z,12.600
2022-10-19T03:09:22.929Z,12.600
2022-10-19T03:10:24.508Z,12.600
2022-10-19T03:11:20.544Z,12.600
2022-10-19T03:12:24.853Z,12.600
2022-10-19T03:13:22.568Z,12.600
2022-10-19T03:14:24.511Z,12.600
2022-10-19T03:15:28.643Z,12.600
2022-10-19T03:17:27.479Z,12.600
2022-10-19T03:19:24.780Z,12.600
2022-10-19T03:20:22.412Z,12.600
2022-10-19T03:21:23.248Z,12.500
2022-10-19T03:23:26.459Z,12.500
2022-10-19T03:25:29.729Z,12.500
2022-10-19T03:26:21.655Z,12.500
2022-10-19T03:27:20.941Z,12.500
2022-10-19T03:28:23.882Z,12.500
2022-10-19T03:29:27.371Z,12.500
2022-10-19T03:30:28.491Z,12.400
2022-10-19T03:31:26.622Z,12.400
2022-10-19T03:33:30.401Z,12.400
2022-10-19T03:34:20.852Z,12.500
2022-10-19T03:35:29.243Z,12.500
2022-10-19T03:36:31.616Z,12.500
2022-10-19T03:37:23.307Z,12.400
2022-10-19T03:38:28.223Z,12.400
2022-10-19T03:39:21.788Z,12.400
2022-10-19T03:40:27.883Z,12.400
2022-10-19T03:41:24.640Z,12.400
2022-10-19T03:42:23.047Z,12.400
2022-10-19T03:43:27.086Z,12.400
2022-10-19T03:44:23.126Z,12.400
2022-10-19T03:46:24.818Z,12.400
2022-10-19T03:48:31.226Z,12.300
2022-10-19T03:49:38.091Z,12.300
2022-10-19T03:50:21.744Z,12.300
2022-10-19T03:51:26.942Z,12.300
2022-10-19T03:52:36.012Z,12.300
2022-10-19T03:54:22.531Z,12.300
2022-10-19T03:55:21.217Z,12.300
2022-10-19T03:56:26.770Z,12.300
2022-10-19T03:57:22.849Z,12.300
2022-10-19T03:58:25.701Z,12.300
2022-10-19T03:59:24.026Z,12.200
2022-10-19T04:00:31.480Z,12.200
2022-10-19T04:02:36.407Z,12.200
2022-10-19T04:03:29.754Z,12.200
2022-10-19T04:04:20.635Z,12.200
2022-10-19T04:05:25.186Z,12.200
2022-10-19T04:06:37.264Z,12.200
2022-10-19T04:07:33.472Z,12.200
2022-10-19T04:09:22.614Z,12.200
2022-10-19T04:11:28.864Z,12.200
2022-10-19T04:12:22.902Z,12.200
2022-10-19T04:13:33.323Z,12.200
2022-10-19T04:14:45.780Z,12.200
2022-10-19T04:15:29.604Z,12.200
2022-10-19T04:16:21.069Z,12.200
2022-10-19T04:18:28.512Z,12.200
2022-10-19T04:19:24.506Z,12.200
2022-10-19T04:20:48.358Z,12.200
2022-10-19T04:21:41.667Z,12.200
2022-10-19T04:22:28.399Z,12.200
2022-10-19T04:23:21.231Z,12.200
2022-10-19T04:24:22.879Z,12.200
2022-10-19T04:25:28.201Z,12.200
2022-10-19T04:26:28.207Z,12.200
2022-10-19T04:27:22.340Z,12.200
2022-10-19T04:28:37.135Z,12.200
2022-10-19T04:29:29.857Z,12.200
2022-10-19T04:30:21.979Z,12.200
2022-10-19T04:31:26.923Z,12.200
2022-10-19T04:32:19.913Z,12.200
2022-10-19T04:33:29.698Z,12.200
2022-10-19T04:34:27.317Z,12.200
2022-10-19T04:35:29.321Z,12.200
2022-10-19T04:36:30.058Z,12.200
2022-10-19T04:37:20.918Z,12.200
2022-10-19T04:38:49.465Z,12.200
2022-10-19T04:40:23.521Z,12.200
2022-10-19T04:41:27.909Z,12.200
2022-10-19T04:42:30.815Z,12.200
2022-10-19T04:43:38.735Z,12.200
2022-10-19T04:44:26.726Z,12.200
2022-10-19T04:45:33.107Z,12.100
2022-10-19T04:46:28.153Z,12.100
2022-10-19T04:48:33.005Z,12.100
2022-10-19T04:49:25.532Z,12.100
2022-10-19T04:50:26.620Z,12.100
2022-10-19T04:51:21.726Z,12.000
2022-10-19T04:52:35.297Z,12.000
2022-10-19T04:53:30.351Z,12.000
2022-10-19T04:54:26.420Z,12.000
2022-10-19T04:56:31.943Z,12.000
2022-10-19T04:57:20.606Z,12.000
2022-10-19T04:58:30.502Z,12.000
2022-10-19T04:59:34.435Z,12.000
2022-10-19T05:00:39.975Z,12.000
2022-10-19T05:01:23.486Z,12.000
2022-10-19T05:02:25.116Z,12.000
2022-10-19T05:03:36.652Z,12.000
2022-10-19T05:04:27.247Z,12.000
2022-10-19T05:05:24.655Z,12.000
2022-10-19T05:06:30.815Z,12.000
2022-10-19T05:07:29.399Z,12.000
2022-10-19T05:08:23.775Z,12.000
2022-10-19T05:09:32.787Z,12.000
2022-10-19T05:11:27.153Z,12.000
2022-10-19T05:12:26.124Z,12.000
2022-10-19T05:13:25.160Z,12.000
2022-10-19T05:14:45.534Z,12.000
2022-10-19T05:15:24.758Z,12.000
2022-10-19T05:16:34.806Z,12.000
2022-10-19T05:18:24.917Z,12.000
2022-10-19T05:19:21.070Z,12.000
2022-10-19T05:20:27.331Z,12.000
2022-10-19T05:21:28.658Z,12.000
2022-10-19T05:22:24.841Z,12.000
2022-10-19T05:24:22.122Z,12.000
2022-10-19T05:25:21.281Z,12.000
2022-10-19T05:26:23.916Z,12.000
2022-10-19T05:27:23.501Z,11.900
2022-10-19T05:28:27.010Z,11.950
2022-10-19T05:29:27.907Z,12.000
2022-10-19T05:30:40.514Z,12.000
2022-10-19T05:32:25.847Z,12.000
2022-10-19T05:34:25.974Z,12.000
2022-10-19T05:35:27.315Z,12.000
2022-10-19T05:36:38.319Z,12.000
2022-10-19T05:37:35.911Z,12.000
2022-10-19T05:38:25.585Z,12.000
2022-10-19T05:39:26.262Z,12.000
2022-10-19T05:40:25.788Z,12.000
2022-10-19T05:42:20.236Z,12.000
2022-10-19T05:43:26.235Z,12.000
2022-10-19T05:44:35.122Z,12.000
2022-10-19T05:45:29.263Z,12.000
2022-10-19T05:46:25.246Z,12.000
2022-10-19T05:47:28.802Z,12.000
2022-10-19T05:48:22.353Z,12.000
2022-10-19T05:49:24.970Z,12.000
2022-10-19T05:50:20.231Z,12.000
2022-10-19T05:51:42.750Z,12.000
2022-10-19T05:52:35.393Z,12.000
2022-10-19T05:53:25.305Z,12.000
2022-10-19T05:55:27.456Z,12.000
2022-10-19T05:56:27.158Z,12.000
2022-10-19T05:57:38.855Z,12.000
2022-10-19T05:58:39.446Z,12.000
2022-10-19T05:59:33.407Z,12.000
2022-10-19T06:00:23.419Z,12.000
2022-10-19T06:01:36.677Z,12.000
2022-10-19T06:02:27.974Z,11.900
2022-10-19T06:03:20.975Z,12.000
2022-10-19T06:04:26.991Z,12.000
2022-10-19T06:05:21.449Z,12.000
2022-10-19T06:06:32.512Z,12.000
2022-10-19T06:07:25.136Z,12.000
2022-10-19T06:08:36.449Z,12.000
2022-10-19T06:09:35.437Z,12.000
2022-10-19T06:11:21.441Z,12.000
2022-10-19T06:13:29.079Z,12.000
2022-10-19T06:15:36.397Z,11.900
2022-10-19T06:16:32.898Z,11.900
2022-10-19T06:17:30.336Z,11.900
2022-10-19T06:18:23.135Z,11.900
2022-10-19T06:19:31.644Z,11.900
2022-10-19T06:20:22.141Z,11.900
2022-10-19T06:21:25.091Z,11.900
2022-10-19T06:23:33.343Z,11.900
2022-10-19T06:24:29.022Z,11.900
2022-10-19T06:25:28.184Z,11.900
2022-10-19T06:27:29.576Z,11.900
2022-10-19T06:28:26.143Z,11.900
2022-10-19T06:29:21.104Z,11.900
2022-10-19T06:30:46.273Z,12.000
2022-10-19T06:32:23.122Z,12.000
2022-10-19T06:33:25.632Z,12.000
2022-10-19T06:34:32.186Z,12.000
2022-10-19T06:35:24.933Z,12.000
2022-10-19T06:36:24.875Z,12.000
2022-10-19T06:37:34.143Z,12.000
2022-10-19T06:40:27.484Z,12.000
2022-10-19T06:41:20.344Z,12.000
2022-10-19T06:42:27.554Z,12.000
2022-10-19T06:43:21.081Z,12.000
2022-10-19T06:44:34.699Z,12.000
2022-10-19T06:45:45.417Z,12.000
2022-10-19T06:46:24.662Z,12.100
2022-10-19T06:47:24.105Z,12.100
2022-10-19T06:48:25.811Z,12.100
2022-10-19T06:49:25.447Z,12.100
2022-10-19T06:50:20.962Z,12.100
2022-10-19T06:51:46.492Z,12.100
2022-10-19T06:52:28.571Z,12.100
2022-10-19T06:53:22.749Z,12.100
2022-10-19T06:54:24.751Z,12.100
2022-10-19T06:55:30.598Z,12.100
2022-10-19T06:56:23.970Z,12.100
2022-10-19T06:57:23.473Z,12.200
2022-10-19T06:58:21.246Z,12.200
2022-10-19T06:59:56.390Z,12.200
2022-10-19T07:01:29.336Z,12.200
2022-10-19T07:02:31.100Z,12.200
2022-10-19T07:03:27.948Z,12.200
2022-10-19T07:06:27.126Z,12.200
2022-10-19T07:07:23.443Z,12.200
2022-10-19T07:09:29.157Z,12.200
2022-10-19T07:10:29.286Z,12.300
2022-10-19T07:11:27.247Z,12.300
2022-10-19T07:12:27.059Z,12.300
2022-10-19T07:13:23.848Z,12.300
2022-10-19T07:14:23.135Z,12.300
2022-10-19T07:15:34.148Z,12.300
2022-10-19T07:16:22.172Z,12.300
2022-10-19T07:17:27.487Z,12.300
2022-10-19T07:18:23.772Z,12.300
2022-10-19T07:19:22.112Z,12.300
2022-10-19T07:20:26.667Z,12.300
2022-10-19T07:22:36.642Z,12.300
2022-10-19T07:23:28.203Z,12.400
2022-10-19T07:24:25.028Z,12.400
2022-10-19T07:25:22.744Z,12.400
2022-10-19T07:26:31.426Z,12.400
2022-10-19T07:28:23.060Z,12.400
2022-10-19T07:29:41.662Z,12.400
2022-10-19T07:30:32.565Z,12.500
2022-10-19T07:31:27.243Z,12.500
2022-10-19T07:32:25.271Z,12.500
2022-10-19T07:35:25.305Z,12.500
2022-10-19T07:36:20.247Z,12.500
2022-10-19T07:37:33.905Z,12.600
2022-10-19T07:38:28.258Z,12.600
2022-10-19T07:39:23.102Z,12.600
2022-10-19T07:43:24.510Z,12.700
2022-10-19T07:44:29.566Z,12.700
2022-10-19T07:45:21.899Z,12.700
2022-10-19T07:46:22.144Z,12.700
2022-10-19T07:47:35.665Z,12.800
2022-10-19T07:50:30.137Z,12.800
2022-10-19T07:51:21.579Z,12.900
2022-10-19T07:52:27.455Z,12.900
2022-10-19T07:53:21.110Z,12.900
2022-10-19T07:54:36.879Z,12.900
2022-10-19T07:55:30.438Z,13.000
2022-10-19T07:56:27.006Z,13.000
2022-10-19T07:57:20.139Z,13.000
2022-10-19T07:58:25.012Z,13.000
2022-10-19T07:59:26.174Z,13.000
2022-10-19T08:00:25.616Z,13.050
2022-10-19T08:01:32.726Z,13.000
2022-10-19T08:04:14.198Z,13.100
2022-10-19T08:05:11.792Z,13.100
2022-10-19T08:05:13.018Z,13.100
2022-10-19T08:05:29.398Z,13.100
2022-10-19T08:06:23.756Z,13.200
2022-10-19T08:07:23.250Z,13.200
2022-10-19T08:08:31.211Z,13.200
2022-10-19T08:09:51.417Z,13.200
2022-10-19T08:10:23.878Z,13.200
2022-10-19T08:11:28.238Z,13.300
2022-10-19T08:12:23.342Z,13.300
2022-10-19T08:13:25.873Z,13.300
2022-10-19T08:14:21.994Z,13.300
2022-10-19T08:15:34.453Z,13.300
2022-10-19T08:16:27.216Z,13.300
2022-10-19T08:17:25.458Z,13.400
2022-10-19T08:18:35.093Z,13.400
2022-10-19T08:20:25.287Z,13.400
2022-10-19T08:21:23.088Z,13.400
2022-10-19T08:22:32.776Z,13.500
2022-10-19T08:23:23.984Z,13.500
2022-10-19T08:24:24.413Z,13.500
2022-10-19T08:25:37.582Z,13.500
2022-10-19T08:26:29.468Z,13.600
2022-10-19T08:28:24.070Z,13.600
2022-10-19T08:29:26.636Z,13.600
2022-10-19T08:30:28.999Z,13.700
2022-10-19T08:31:24.199Z,13.700
2022-10-19T08:32:22.478Z,13.700
2022-10-19T08:34:22.237Z,13.700
2022-10-19T08:35:21.148Z,13.800
2022-10-19T08:36:26.125Z,13.800
2022-10-19T08:37:44.046Z,13.800
2022-10-19T08:38:25.322Z,13.800
2022-10-19T08:39:25.424Z,13.900
2022-10-19T08:40:27.143Z,13.900
2022-10-19T08:41:27.069Z,13.900
2022-10-19T08:42:23.849Z,14.000
2022-10-19T08:44:21.227Z,14.000
2022-10-19T08:45:23.406Z,14.000
2022-10-19T08:46:30.468Z,14.100
2022-10-19T08:47:29.460Z,14.100
2022-10-19T08:48:27.023Z,14.200
2022-10-19T08:49:25.776Z,14.200
2022-10-19T08:50:20.980Z,14.200
2022-10-19T08:52:23.812Z,14.200
2022-10-19T08:53:31.350Z,14.300
2022-10-19T08:54:29.304Z,14.300
2022-10-19T08:55:26.750Z,14.300
2022-10-19T08:57:27.634Z,14.400
2022-10-19T08:59:23.493Z,14.400
2022-10-19T09:00:33.436Z,14.500
2022-10-19T09:01:31.617Z,14.500
2022-10-19T09:02:19.582Z,14.500
2022-10-19T09:03:32.115Z,14.500
2022-10-19T09:04:28.937Z,14.500
2022-10-19T09:05:22.585Z,14.500
2022-10-19T09:06:26.354Z,14.500
2022-10-19T09:07:39.148Z,14.500
2022-10-19T09:08:24.043Z,14.600
2022-10-19T09:09:29.687Z,14.600
2022-10-19T09:10:21.440Z,14.600
2022-10-19T09:11:33.797Z,14.700
2022-10-19T09:13:19.739Z,14.700
2022-10-19T09:14:24.779Z,14.700
2022-10-19T09:15:26.594Z,14.700
2022-10-19T09:16:28.729Z,14.700
2022-10-19T09:17:21.489Z,14.800
2022-10-19T09:18:34.469Z,14.800
2022-10-19T09:19:24.184Z,14.800
2022-10-19T09:20:26.019Z,14.900
2022-10-19T09:22:20.195Z,14.900
2022-10-19T09:23:25.296Z,14.900
2022-10-19T09:24:21.385Z,15.000
2022-10-19T09:26:27.512Z,15.000
2022-10-19T09:28:20.976Z,15.100
2022-10-19T09:29:24.497Z,15.100
2022-10-19T09:30:25.345Z,15.100
2022-10-19T09:31:21.381Z,15.100
2022-10-19T09:32:33.547Z,15.100
2022-10-19T09:33:29.627Z,15.200
2022-10-19T09:34:23.203Z,15.200
2022-10-19T09:35:26.657Z,15.200
2022-10-19T09:36:39.282Z,15.200
2022-10-19T09:37:25.975Z,15.300
2022-10-19T09:38:21.229Z,15.350
2022-10-19T09:39:34.644Z,15.400
2022-10-19T09:40:32.849Z,15.500
2022-10-19T09:41:24.704Z,15.500
2022-10-19T09:42:29.271Z,15.500
2022-10-19T09:44:25.549Z,15.500
2022-10-19T09:45:35.361Z,15.600
2022-10-19T09:46:37.969Z,15.600
2022-10-19T09:47:20.910Z,15.600
2022-10-19T09:48:27.042Z,15.600
2022-10-19T09:49:44.630Z,15.700
2022-10-19T09:51:28.796Z,15.700
2022-10-19T09:53:31.641Z,15.800
2022-10-19T09:54:27.477Z,15.800
2022-10-19T09:55:25.150Z,15.800
2022-10-19T09:56:36.202Z,15.900
2022-10-19T09:57:34.267Z,15.900
2022-10-19T09:59:24.013Z,16.000
2022-10-19T10:00:35.688Z,16.000
2022-10-19T10:01:40.140Z,16.050
2022-10-19T10:02:24.663Z,16.100
2022-10-19T10:03:33.349Z,16.100
2022-10-19T10:04:23.555Z,16.100
2022-10-19T10:05:31.844Z,16.100
2022-10-19T10:08:32.016Z,16.200
2022-10-19T10:09:23.520Z,16.200
2022-10-19T10:10:32.336Z,16.300
2022-10-19T10:11:30.919Z,16.300
2022-10-19T10:12:27.706Z,16.400
2022-10-19T10:13:24.835Z,16.400
2022-10-19T10:15:20.017Z,16.500
2022-10-19T10:16:25.021Z,16.600
2022-10-19T10:17:42.893Z,16.600
2022-10-19T10:18:32.577Z,16.700
2022-10-19T10:19:27.354Z,16.800
2022-10-19T10:20:21.603Z,16.900
2022-10-19T10:21:25.532Z,16.900
2022-10-19T10:22:28.033Z,17.000
2022-10-19T10:23:25.822Z,17.000
2022-10-19T10:24:20.738Z,17.050
2022-10-19T10:25:33.266Z,17.100
2022-10-19T10:26:28.184Z,17.200
2022-10-19T10:27:25.476Z,17.200
2022-10-19T10:28:25.915Z,17.300
2022-10-19T10:29:31.239Z,17.300
2022-10-19T10:30:25.891Z,17.300
2022-10-19T10:31:26.385Z,17.400
2022-10-19T10:32:23.285Z,17.500
2022-10-19T10:33:40.662Z,17.500
2022-10-19T10:34:28.667Z,17.500
2022-10-19T10:35:33.170Z,17.500
2022-10-19T10:36:22.953Z,17.600
2022-10-19T10:37:26.536Z,17.600
2022-10-19T10:38:36.616Z,17.700
2022-10-19T10:39:30.732Z,17.700
2022-10-19T10:40:28.537Z,17.800
2022-10-19T10:41:22.733Z,17.800
2022-10-19T10:42:21.761Z,17.900
2022-10-19T10:43:40.722Z,18.000
2022-10-19T10:45:24.123Z,18.000
2022-10-19T10:46:33.964Z,18.000
2022-10-19T10:47:25.443Z,18.000
2022-10-19T10:48:21.473Z,18.000
2022-10-19T10:49:24.865Z,18.100
2022-10-19T10:50:27.126Z,18.100
2022-10-19T10:51:27.119Z,18.100
2022-10-19T10:53:19.737Z,18.200
2022-10-19T10:54:25.428Z,18.200
2022-10-19T10:55:21.221Z,18.200
2022-10-19T10:56:28.011Z,18.200
2022-10-19T10:57:44.380Z,18.200
2022-10-19T10:59:21.867Z,18.300
2022-10-19T11:00:21.738Z,18.300
2022-10-19T11:01:28.113Z,18.300
2022-10-19T11:02:21.050Z,18.400
2022-10-19T11:03:33.901Z,18.400
2022-10-19T11:05:25.346Z,18.400
2022-10-19T11:06:25.862Z,18.400
2022-10-19T11:08:22.427Z,18.500
2022-10-19T11:09:23.386Z,18.550
2022-10-19T11:10:34.109Z,18.600
2022-10-19T11:11:25.310Z,18.600
2022-10-19T11:13:35.149Z,18.700
2022-10-19T11:14:23.189Z,18.800
2022-10-19T11:15:33.545Z,18.800
2022-10-19T11:16:21.038Z,18.800
2022-10-19T11:17:24.042Z,18.900
2022-10-19T11:18:23.799Z,18.900
2022-10-19T11:19:23.676Z,18.900
2022-10-19T11:20:34.396Z,19.000
2022-10-19T11:22:26.389Z,19.000
2022-10-19T11:23:23.842Z,19.100
2022-10-19T11:24:31.283Z,19.100
2022-10-19T11:25:29.192Z,19.100
2022-10-19T11:26:38.494Z,19.100
2022-10-19T11:27:33.613Z,19.200
2022-10-19T11:28:19.892Z,19.200
2022-10-19T11:29:25.361Z,19.200
2022-10-19T11:31:31.775Z,19.300
2022-10-19T11:32:32.231Z,19.350
2022-10-19T11:33:25.506Z,19.400
2022-10-19T11:34:29.674Z,19.400
2022-10-19T11:36:25.351Z,19.400
2022-10-19T11:37:21.376Z,19.500
2022-10-19T11:38:29.578Z,19.500
2022-10-19T11:39:29.723Z,19.500
2022-10-19T11:40:22.064Z,19.600
2022-10-19T11:41:34.576Z,19.600
2022-10-19T11:43:31.760Z,19.600
2022-10-19T11:44:25.691Z,19.700
2022-10-19T11:45:23.894Z,19.700
2022-10-19T11:46:27.331Z,19.700
2022-10-19T11:47:23.426Z,19.700
2022-10-19T11:48:33.644Z,19.800
2022-10-19T11:49:29.360Z,19.800
2022-10-19T11:51:22.510Z,19.900
2022-10-19T11:52:24.150Z,19.900
2022-10-19T11:53:25.198Z,20.000
2022-10-19T11:54:28.196Z,20.000
2022-10-19T11:55:38.430Z,20.000
2022-10-19T11:56:39.109Z,20.100
2022-10-19T11:57:26.754Z,20.100
2022-10-19T11:58:21.367Z,20.100
2022-10-19T11:59:34.253Z,20.100
2022-10-19T12:01:22.980Z,20.200
2022-10-19T12:02:25.234Z,20.200
2022-10-19T12:03:32.158Z,20.200
2022-10-19T12:05:26.426Z,20.200
2022-10-19T12:06:31.575Z,20.300
2022-10-19T12:07:42.122Z,20.300
2022-10-19T12:08:27.747Z,20.300
2022-10-19T12:09:35.870Z,20.400
2022-10-19T12:10:31.654Z,20.400
2022-10-19T12:11:27.775Z,20.400
2022-10-19T12:12:23.023Z,20.500
2022-10-19T12:13:20.602Z,20.500
2022-10-19T12:14:28.192Z,20.500
2022-10-19T12:16:21.916Z,20.600
2022-10-19T12:17:30.577Z,20.600
2022-10-19T12:18:26.062Z,20.600
2022-10-19T12:20:32.917Z,20.700
2022-10-19T12:21:27.699Z,20.700
2022-10-19T12:22:29.177Z,20.700
2022-10-19T12:24:32.067Z,20.800
2022-10-19T12:25:30.882Z,20.850
2022-10-19T12:26:21.322Z,20.900
2022-10-19T12:27:21.623Z,20.900
2022-10-19T12:28:28.606Z,20.900
2022-10-19T12:29:23.675Z,21.000
2022-10-19T12:30:32.707Z,21.000
2022-10-19T12:32:25.641Z,21.000
2022-10-19T12:33:23.145Z,20.950
2022-10-19T12:34:23.011Z,20.900
2022-10-19T12:35:31.384Z,20.900
2022-10-19T12:36:28.028Z,20.900
2022-10-19T12:37:26.487Z,20.900
2022-10-19T12:38:24.338Z,21.000
2022-10-19T12:39:28.846Z,21.000
2022-10-19T12:40:21.617Z,21.000
2022-10-19T12:41:25.992Z,21.000
2022-10-19T12:42:37.583Z,21.000
2022-10-19T12:43:23.483Z,21.100
2022-10-19T12:44:35.973Z,21.100
2022-10-19T12:45:20.861Z,21.100
2022-10-19T12:46:28.804Z,21.100
2022-10-19T12:47:23.778Z,21.100
2022-10-19T12:48:32.918Z,21.100
2022-10-19T12:49:31.040Z,21.100
2022-10-19T12:50:27.940Z,21.200
2022-10-19T12:51:39.994Z,21.200
2022-10-19T12:53:21.283Z,21.200
2022-10-19T12:54:23.886Z,21.200
2022-10-19T12:55:31.732Z,21.200
2022-10-19T12:56:29.259Z,21.200
2022-10-19T12:57:25.352Z,21.200
2022-10-19T12:58:22.754Z,21.200
2022-10-19T12:59:29.237Z,21.200
2022-10-19T13:00:25.464Z,21.200
2022-10-19T13:01:24.078Z,21.200
2022-10-19T13:02:38.416Z,21.200
2022-10-19T13:03:27.595Z,21.150
2022-10-19T13:04:25.352Z,21.100
2022-10-19T13:05:38.716Z,21.100
2022-10-19T13:06:29.749Z,21.100
2022-10-19T13:07:29.478Z,21.100
2022-10-19T13:08:22.467Z,21.100
2022-10-19T13:10:27.270Z,21.100
2022-10-19T13:11:23.562Z,21.150
2022-10-19T13:12:38.056Z,21.200
2022-10-19T13:14:21.991Z,21.200
2022-10-19T13:15:23.440Z,21.300
2022-10-19T13:16:25.399Z,21.300
2022-10-19T13:17:33.300Z,21.300
2022-10-19T13:18:26.638Z,21.400
2022-10-19T13:19:36.896Z,21.400
2022-10-19T13:20:31.193Z,21.400
2022-10-19T13:21:25.283Z,21.400
2022-10-19T13:22:21.555Z,21.400
2022-10-19T13:23:24.047Z,21.300
2022-10-19T13:24:25.858Z,21.300
2022-10-19T13:26:20.420Z,21.300
2022-10-19T13:27:33.739Z,21.300
2022-10-19T13:28:27.246Z,21.200
2022-10-19T13:30:29.762Z,21.200
2022-10-19T13:31:20.827Z,21.100
2022-10-19T13:32:25.637Z,21.100
2022-10-19T13:33:38.884Z,21.100
2022-10-19T13:34:29.545Z,21.000
2022-10-19T13:35:30.479Z,21.000
2022-10-19T13:37:34.823Z,21.000
2022-10-19T13:39:23.793Z,21.000
2022-10-19T13:40:33.159Z,21.000
2022-10-19T13:41:31.198Z,21.000
2022-10-19T13:42:25.486Z,21.000
2022-10-19T13:43:25.585Z,21.000
2022-10-19T13:44:31.441Z,21.000
2022-10-19T13:45:28.980Z,21.000
2022-10-19T13:47:20.362Z,21.100
2022-10-19T13:48:34.095Z,21.100
2022-10-19T13:49:31.775Z,21.100
2022-10-19T13:50:23.623Z,21.100
2022-10-19T13:51:33.299Z,21.100
2022-10-19T13:52:27.486Z,21.100
2022-10-19T13:53:27.375Z,21.100
2022-10-19T13:55:29.577Z,21.100
2022-10-19T13:56:27.181Z,21.100
2022-10-19T13:57:23.482Z,21.100
2022-10-19T13:58:33.719Z,21.200
2022-10-19T14:00:24.596Z,21.200
2022-10-19T14:01:22.605Z,21.200
2022-10-19T14:02:22.629Z,21.200
2022-10-19T14:03:29.054Z,21.200
2022-10-19T14:04:23.902Z,21.200
2022-10-19T14:05:35.705Z,21.200
2022-10-19T14:06:33.524Z,21.200
2022-10-19T14:08:24.360Z,21.300
2022-10-19T14:10:32.701Z,21.300
2022-10-19T14:11:32.223Z,21.300
2022-10-19T14:12:33.049Z,21.300
2022-10-19T14:13:27.276Z,21.300
2022-10-19T14:14:24.890Z,21.300
2022-10-19T14:15:27.263Z,21.200
2022-10-19T14:17:22.060Z,21.200
2022-10-19T14:18:23.828Z,21.200
2022-10-19T14:19:24.889Z,21.200
2022-10-19T14:20:30.994Z,21.300
2022-10-19T14:21:25.409Z,21.300
2022-10-19T14:22:30.994Z,21.300
2022-10-19T14:23:35.874Z,21.300
2022-10-19T14:24:24.109Z,21.300
2022-10-19T14:25:21.633Z,21.300
2022-10-19T14:26:24.974Z,21.300
2022-10-19T14:27:27.741Z,21.300
2022-10-19T14:28:28.669Z,21.300
2022-10-19T14:29:40.151Z,21.300
2022-10-19T14:30:29.758Z,21.300
2022-10-19T14:31:27.483Z,21.300
2022-10-19T14:33:26.777Z,21.300
2022-10-19T14:34:31.985Z,21.300
2022-10-19T14:35:25.107Z,21.300
2022-10-19T14:36:37.254Z,21.300
2022-10-19T14:37:21.812Z,21.400
2022-10-19T14:38:25.696Z,21.400
2022-10-19T14:39:24.750Z,21.400
2022-10-19T14:41:27.628Z,21.400
2022-10-19T14:42:27.587Z,21.400
2022-10-19T14:43:34.894Z,21.400
2022-10-19T14:44:24.519Z,21.300
2022-10-19T14:45:27.050Z,21.300
2022-10-19T14:46:25.219Z,21.300
2022-10-19T14:47:28.831Z,21.300
2022-10-19T14:48:19.701Z,21.300
2022-10-19T14:49:25.037Z,21.300
2022-10-19T14:50:39.000Z,21.300
2022-10-19T14:51:32.438Z,21.300
2022-10-19T14:52:31.969Z,21.200
2022-10-19T14:53:23.449Z,21.200
2022-10-19T14:54:24.590Z,21.200
2022-10-19T14:55:22.925Z,21.200
2022-10-19T14:56:23.603Z,21.200
2022-10-19T14:57:36.679Z,21.200
2022-10-19T14:58:34.449Z,21.200
2022-10-19T14:59:36.655Z,21.200
2022-10-19T15:00:36.892Z,21.200
2022-10-19T15:02:28.339Z,21.200
2022-10-19T15:03:23.540Z,21.200
2022-10-19T15:04:35.996Z,21.200
2022-10-19T15:05:34.908Z,21.150
2022-10-19T15:06:25.579Z,21.100
2022-10-19T15:07:23.581Z,21.100
2022-10-19T15:08:34.862Z,21.100
2022-10-19T15:10:23.554Z,21.100
2022-10-19T15:11:37.844Z,21.000
2022-10-19T15:12:32.477Z,21.000
2022-10-19T15:13:27.176Z,21.000
2022-10-19T15:14:23.615Z,21.000
2022-10-19T15:15:31.300Z,21.000